Time;durP1;ratioP1;P1;durP2;ratioP2;P2;SDS_P1;SDS_P2;PMS_P1;PMS_P2;Temp;Humidity;BMP_temperature;BMP_pressure;BME280_temperature;BME280_humidity;BME280_pressure;Samples;Min_cycle;Max_cycle;Signal;HPM_P1;HPM_P2
2022/11/02 00:00:44;;;;;;;14.50;4.80;;;19.60;56.30;;;;;;5156305;27;20058;-12
2022/11/02 00:03:09;;;;;;;11.98;4.50;;;19.60;56.30;;;;;;5156308;27;20057;-11
2022/11/02 00:05:35;;;;;;;11.13;4.57;;;19.60;56.30;;;;;;5156065;27;20050;-12
2022/11/02 00:08:01;;;;;;;10.82;5.32;;;19.60;56.30;;;;;;5155871;27;20723;-12
2022/11/02 00:10:28;;;;;;;11.32;4.80;;;19.60;56.30;;;;;;5156008;27;20111;-11
2022/11/02 00:12:54;;;;;;;9.85;4.63;;;19.60;56.30;;;;;;5156387;27;20058;-12
2022/11/02 00:15:23;;;;;;;10.40;4.55;;;19.50;56.30;;;;;;5156484;27;20478;-12
2022/11/02 00:17:52;;;;;;;8.00;4.10;;;19.50;56.20;;;;;;5156088;27;20060;-14
2022/11/02 00:20:19;;;;;;;8.75;4.20;;;19.50;56.20;;;;;;5155815;27;20070;-12
2022/11/02 00:22:46;;;;;;;7.53;4.13;;;19.50;56.20;;;;;;5155599;27;20050;-12
2022/11/02 00:25:16;;;;;;;11.25;5.20;;;19.50;56.20;;;;;;5155734;27;20047;-12
2022/11/02 00:27:42;;;;;;;11.70;4.57;;;19.50;56.30;;;;;;5155865;27;20573;-11
2022/11/02 00:30:09;;;;;;;10.05;4.18;;;19.50;56.20;;;;;;5155571;27;20059;-11
2022/11/02 00:32:35;;;;;;;11.75;4.13;;;19.60;56.30;;;;;;5155696;27;20046;-12
2022/11/02 00:35:01;;;;;;;8.65;3.97;;;19.50;56.20;;;;;;5155646;27;20141;-12
2022/11/02 00:37:26;;;;;;;8.70;4.15;;;19.50;56.20;;;;;;5137275;27;20180;-11
2022/11/02 00:39:52;;;;;;;8.55;4.60;;;19.60;56.30;;;;;;5136852;27;20055;-12
2022/11/02 00:42:18;;;;;;;9.40;4.20;;;19.50;56.20;;;;;;5155424;27;20047;-12
2022/11/02 00:44:43;;;;;;;7.20;3.97;;;19.50;56.20;;;;;;5135250;27;20151;-12
2022/11/02 00:47:10;;;;;;;7.10;3.90;;;19.50;56.20;;;;;;5136842;27;20131;-11
2022/11/02 00:49:36;;;;;;;9.45;4.40;;;19.50;56.20;;;;;;5155717;27;20119;-12
2022/11/02 00:52:03;;;;;;;10.23;4.05;;;19.50;56.20;;;;;;5136139;27;20043;-12
2022/11/02 00:54:29;;;;;;;8.13;4.22;;;19.50;56.20;;;;;;5155577;27;20053;-12
2022/11/02 00:56:55;;;;;;;12.43;3.92;;;19.50;56.20;;;;;;5136389;27;20491;-12
2022/11/02 00:59:21;;;;;;;11.13;3.95;;;19.50;56.20;;;;;;5136461;27;20050;-11
2022/11/02 01:01:48;;;;;;;12.00;4.32;;;19.50;56.20;;;;;;5136534;27;20049;-12
2022/11/02 01:04:14;;;;;;;8.98;4.60;;;19.50;56.20;;;;;;5155806;27;20482;-12
2022/11/02 01:06:41;;;;;;;7.93;4.05;;;19.50;56.20;;;;;;5155083;27;20084;-11
2022/11/02 01:09:08;;;;;;;7.85;4.03;;;19.50;56.10;;;;;;5135591;27;20155;-12
2022/11/02 01:11:33;;;;;;;8.27;4.03;;;19.50;56.20;;;;;;5155058;27;20091;-11
2022/11/02 01:13:59;;;;;;;6.38;4.15;;;19.50;56.10;;;;;;5155395;27;20046;-12
2022/11/02 01:16:24;;;;;;;8.70;4.25;;;19.50;56.20;;;;;;5155266;27;20059;-11
2022/11/02 01:18:55;;;;;;;9.60;4.00;;;19.50;56.10;;;;;;5136358;27;20120;-11
2022/11/02 01:21:21;;;;;;;8.38;3.58;;;19.50;56.10;;;;;;5135656;27;20055;-12
2022/11/02 01:23:47;;;;;;;6.55;3.78;;;19.50;56.10;;;;;;5154852;27;20076;-12
2022/11/02 01:26:13;;;;;;;6.50;4.07;;;19.50;56.10;;;;;;5154778;27;20082;-12
2022/11/02 01:28:39;;;;;;;9.10;3.63;;;19.50;56.10;;;;;;5154768;27;20046;-12
2022/11/02 01:31:07;;;;;;;6.65;3.67;;;19.50;56.10;;;;;;5154286;27;20078;-11
2022/11/02 01:33:34;;;;;;;7.70;3.65;;;19.50;56.10;;;;;;5154750;27;20042;-12
2022/11/02 01:36:05;;;;;;;7.40;3.92;;;19.50;56.10;;;;;;5136023;27;20078;-12
2022/11/02 01:38:32;;;;;;;9.32;3.67;;;19.50;56.10;;;;;;5154725;27;20065;-12
2022/11/02 01:40:59;;;;;;;8.15;3.67;;;19.50;56.10;;;;;;5154633;27;20060;-12
2022/11/02 01:43:33;;;;;;;9.52;4.00;;;19.50;56.10;;;;;;5154596;27;20401;-12
2022/11/02 01:46:05;;;;;;;7.30;3.90;;;19.50;56.10;;;;;;5155139;27;20062;-11
2022/11/02 01:48:43;;;;;;;6.10;3.50;;;19.50;56.10;;;;;;5154280;27;20133;-10
2022/11/02 01:51:14;;;;;;;10.40;3.72;;;19.50;56.10;;;;;;5154398;27;20131;-9
2022/11/02 01:53:45;;;;;;;6.90;3.37;;;19.50;56.10;;;;;;5154798;27;20050;-9
2022/11/02 01:56:14;;;;;;;7.75;3.20;;;19.50;56.10;;;;;;5135837;27;20062;-10
2022/11/02 01:58:43;;;;;;;9.15;3.45;;;19.50;56.00;;;;;;5154933;27;20046;-10
2022/11/02 02:01:09;;;;;;;8.25;3.80;;;19.50;56.00;;;;;;5135640;27;20047;-9
2022/11/02 02:03:36;;;;;;;4.43;3.15;;;19.50;56.00;;;;;;5154429;27;20099;-10
2022/11/02 02:06:09;;;;;;;8.05;3.55;;;19.50;56.00;;;;;;5135644;27;20046;-10
2022/11/02 02:08:39;;;;;;;5.07;3.35;;;19.50;56.00;;;;;;5154260;27;20094;-10
2022/11/02 02:11:29;;;;;;;6.43;3.10;;;19.50;56.00;;;;;;5154193;27;20130;-10
2022/11/02 02:13:58;;;;;;;6.05;2.90;;;19.50;56.00;;;;;;5154209;27;20070;-10
2022/11/02 02:16:49;;;;;;;8.32;3.47;;;19.50;56.00;;;;;;5135429;27;20091;-10
2022/11/02 02:19:28;;;;;;;6.17;2.90;;;19.50;56.00;;;;;;5153984;27;20042;-10
2022/11/02 02:22:03;;;;;;;6.25;3.22;;;19.50;56.00;;;;;;5135963;27;20047;-10
2022/11/02 02:24:47;;;;;;;5.72;3.20;;;19.50;56.00;;;;;;5135393;27;20078;-10
2022/11/02 02:27:30;;;;;;;4.47;2.95;;;19.50;56.00;;;;;;5134818;27;20047;-10
2022/11/02 02:30:04;;;;;;;5.57;3.17;;;19.50;56.00;;;;;;5154003;27;20055;-10
2022/11/02 02:32:42;;;;;;;5.53;2.90;;;19.50;56.00;;;;;;5135330;27;20050;-10
2022/11/02 02:35:19;;;;;;;4.07;2.63;;;19.50;56.00;;;;;;5153982;27;20069;-10
2022/11/02 02:38:03;;;;;;;7.32;3.65;;;19.50;56.00;;;;;;5134517;27;20088;-10
2022/11/02 02:40:33;;;;;;;7.78;3.63;;;19.50;56.00;;;;;;5134202;27;20100;-10
2022/11/02 02:43:23;;;;;;;7.13;3.03;;;19.50;56.00;;;;;;5133505;27;20051;-10
2022/11/02 02:46:03;;;;;;;6.60;3.35;;;19.50;56.00;;;;;;5107318;27;20455;-10
2022/11/02 02:48:30;;;;;;;5.30;2.88;;;19.50;56.00;;;;;;5137214;27;20085;-10
2022/11/02 02:51:04;;;;;;;3.88;2.85;;;19.50;56.00;;;;;;5138756;27;20123;-10
2022/11/02 02:53:43;;;;;;;6.28;3.63;;;19.50;56.00;;;;;;5138814;27;20134;-10
2022/11/02 02:56:10;;;;;;;6.97;3.80;;;19.50;55.90;;;;;;5122094;27;20137;-10
2022/11/02 02:58:44;;;;;;;3.25;2.58;;;19.50;55.90;;;;;;5137842;27;20461;-10
2022/11/02 03:01:14;;;;;;;7.28;3.10;;;19.50;55.90;;;;;;5138500;27;20051;-10
2022/11/02 03:03:42;;;;;;;5.38;2.75;;;19.50;55.90;;;;;;5139059;27;20043;-10
2022/11/02 03:06:24;;;;;;;5.35;2.47;;;19.50;55.90;;;;;;5138390;27;20057;-10
2022/11/02 03:09:17;;;;;;;4.63;2.85;;;19.50;55.90;;;;;;5138391;27;20065;-10
2022/11/02 03:12:20;;;;;;;5.30;2.85;;;19.40;55.90;;;;;;5136504;27;20046;-10
2022/11/02 03:14:54;;;;;;;6.30;2.53;;;19.50;55.90;;;;;;5116738;27;20057;-10
2022/11/02 03:17:33;;;;;;;5.38;2.60;;;19.50;55.90;;;;;;5137655;27;20043;-10
2022/11/02 03:20:25;;;;;;;5.05;2.60;;;19.50;55.90;;;;;;5138339;27;20047;-10
2022/11/02 03:23:08;;;;;;;5.78;2.50;;;19.50;55.90;;;;;;5138353;27;20050;-10
2022/11/02 03:25:57;;;;;;;6.75;3.22;;;19.50;55.90;;;;;;5156722;27;20553;-10
2022/11/02 03:28:32;;;;;;;3.78;2.88;;;19.50;55.90;;;;;;5137316;27;20185;-10
2022/11/02 03:31:07;;;;;;;5.63;2.65;;;19.50;55.90;;;;;;5157093;27;20051;-10
2022/11/02 03:33:46;;;;;;;3.67;2.67;;;19.50;55.90;;;;;;5156935;27;20038;-10
2022/11/02 03:36:16;;;;;;;5.45;2.15;;;19.40;56.40;;;;;;5138025;27;20051;-10
2022/11/02 03:39:05;;;;;;;4.38;2.92;;;19.40;55.80;;;;;;5137961;27;20057;-11
2022/11/02 03:41:34;;;;;;;5.00;2.85;;;19.40;55.80;;;;;;5137802;27;20395;-10
2022/11/02 03:44:12;;;;;;;6.68;2.65;;;19.40;55.80;;;;;;5137901;27;20043;-10
2022/11/02 03:46:40;;;;;;;5.05;2.42;;;19.40;55.80;;;;;;5136719;27;20053;-10
2022/11/02 03:49:11;;;;;;;4.57;2.78;;;19.50;55.80;;;;;;5153379;27;20428;-10
2022/11/02 03:51:41;;;;;;;6.65;3.25;;;19.40;55.80;;;;;;5137828;27;20099;-10
2022/11/02 03:54:07;;;;;;;6.20;2.55;;;19.40;55.80;;;;;;5137296;27;20517;-10
2022/11/02 03:56:39;;;;;;;4.07;2.28;;;19.40;55.80;;;;;;5137487;27;20047;-10
2022/11/02 03:59:04;;;;;;;4.20;2.25;;;19.40;55.80;;;;;;5156481;27;20050;-10
2022/11/02 04:01:37;;;;;;;4.97;2.47;;;19.40;55.80;;;;;;5137517;27;20035;-10
2022/11/02 04:04:04;;;;;;;6.32;2.58;;;19.40;55.80;;;;;;5137511;27;20051;-10
2022/11/02 04:06:30;;;;;;;5.03;2.58;;;19.50;55.70;;;;;;5137318;27;20487;-10
2022/11/02 04:08:56;;;;;;;4.38;2.30;;;19.50;55.70;;;;;;5156019;27;20058;-10
2022/11/02 04:19:44;;;;;;;6.55;2.63;;;19.50;55.50;;;;;;5156189;27;20043;-9
2022/11/02 04:25:14;;;;;;;3.85;2.53;;;19.60;55.40;;;;;;5137215;27;20965;-10
2022/11/02 04:27:48;;;;;;;4.38;2.20;;;19.60;55.20;;;;;;5137232;27;20050;-10
2022/11/02 04:30:15;;;;;;;;;;;19.70;55.10;;;;;;5137603;27;20057;-10
2022/11/02 04:35:36;;;;;;;5.50;2.33;;;19.70;54.90;;;;;;5136980;27;20482;-9
2022/11/02 04:41:40;;;;;;;3.75;2.22;;;19.80;54.80;;;;;;5155841;27;20054;-10
2022/11/02 04:43:34;;;;;;;2.75;1.73;;;19.80;54.70;;;;;;5155481;27;20038;-9
2022/11/02 04:46:00;;;;;;;5.07;2.38;;;19.80;54.70;;;;;;5136901;27;20150;-10
2022/11/02 04:48:29;;;;;;;5.00;2.45;;;19.90;54.70;;;;;;5155441;27;20615;-10
2022/11/02 04:50:57;;;;;;;3.58;2.00;;;19.90;54.60;;;;;;5155730;27;20483;-10
2022/11/02 04:53:23;;;;;;;3.85;2.03;;;19.80;54.60;;;;;;5137282;27;20050;-9
2022/11/02 04:55:50;;;;;;;3.45;2.00;;;19.80;54.60;;;;;;5135708;27;20066;-10
2022/11/02 04:58:16;;;;;;;4.30;2.50;;;19.80;54.60;;;;;;5134864;27;20053;-10
2022/11/02 05:00:41;;;;;;;5.28;2.50;;;19.80;54.60;;;;;;5136653;27;20141;-10
2022/11/02 05:03:09;;;;;;;3.97;2.28;;;19.80;54.60;;;;;;5135727;27;20055;-10
2022/11/02 05:05:35;;;;;;;2.50;1.67;;;19.80;54.70;;;;;;5134859;27;20490;-9
2022/11/02 05:08:00;;;;;;;3.13;2.13;;;19.80;54.70;;;;;;5135522;27;20141;-10
2022/11/02 05:10:26;;;;;;;3.97;2.35;;;19.80;54.70;;;;;;5136449;27;20050;-10
2022/11/02 05:12:57;;;;;;;3.65;2.13;;;19.80;54.80;;;;;;5118642;27;20047;-10
2022/11/02 05:15:23;;;;;;;4.45;2.28;;;19.80;54.80;;;;;;5135308;27;20448;-9
2022/11/02 05:17:50;;;;;;;4.13;1.90;;;19.80;54.80;;;;;;5136252;27;20046;-9
2022/11/02 05:20:16;;;;;;;5.15;1.90;;;19.80;54.80;;;;;;5136241;27;20137;-10
2022/11/02 05:22:43;;;;;;;4.15;2.13;;;19.80;54.80;;;;;;5136477;27;20137;-10
2022/11/02 05:25:11;;;;;;;4.63;1.85;;;19.70;54.80;;;;;;5136153;27;20047;-10
2022/11/02 05:27:37;;;;;;;3.60;2.30;;;19.70;54.80;;;;;;5136227;27;20046;-10
2022/11/02 05:30:05;;;;;;;3.63;2.03;;;19.70;54.80;;;;;;5136406;27;20057;-10
2022/11/02 05:32:32;;;;;;;3.42;1.67;;;19.70;54.80;;;;;;5136647;27;20043;-9
2022/11/02 05:34:59;;;;;;;3.08;1.60;;;19.70;54.80;;;;;;5136107;27;20446;-10
2022/11/02 05:37:25;;;;;;;4.22;2.35;;;19.70;54.80;;;;;;5135998;27;20141;-10
2022/11/02 05:39:51;;;;;;;4.35;2.10;;;19.70;54.90;;;;;;5136021;27;20057;-10
2022/11/02 05:42:17;;;;;;;2.55;1.90;;;19.60;54.80;;;;;;5136454;27;20390;-9
2022/11/02 05:44:42;;;;;;;4.63;2.22;;;19.70;54.90;;;;;;5154540;27;20051;-9
2022/11/02 05:47:08;;;;;;;3.38;1.77;;;19.60;54.80;;;;;;5154564;27;20522;-10
2022/11/02 05:49:34;;;;;;;3.90;1.83;;;19.60;54.80;;;;;;5154447;27;20447;-9
2022/11/02 05:51:59;;;;;;;4.90;1.88;;;19.60;54.90;;;;;;5154400;27;20069;-10
2022/11/02 05:54:25;;;;;;;2.50;1.58;;;19.60;54.90;;;;;;5154737;27;20474;-10
2022/11/02 05:56:51;;;;;;;4.40;2.10;;;19.60;54.90;;;;;;5135694;27;20474;-10
2022/11/02 05:59:16;;;;;;;3.58;1.98;;;19.60;54.90;;;;;;5154956;27;20134;-10
2022/11/02 06:01:42;;;;;;;2.67;2.05;;;19.60;55.00;;;;;;5154300;27;20038;-10
2022/11/02 06:04:07;;;;;;;4.03;1.90;;;19.60;55.00;;;;;;5154391;27;20046;-10
2022/11/02 06:06:33;;;;;;;3.35;1.67;;;19.60;55.00;;;;;;5154623;27;20120;-11
2022/11/02 06:08:59;;;;;;;2.88;1.83;;;19.60;55.00;;;;;;5154252;27;20088;-10
2022/11/02 06:11:24;;;;;;;3.28;1.95;;;19.60;55.00;;;;;;5154558;27;20078;-9
2022/11/02 06:13:50;;;;;;;3.25;1.80;;;19.60;54.90;;;;;;5154097;27;20054;-11
2022/11/02 06:16:16;;;;;;;4.05;2.40;;;19.60;54.90;;;;;;5154729;27;20474;-10
2022/11/02 06:18:42;;;;;;;5.25;2.10;;;19.60;54.80;;;;;;5156654;27;20482;-10
2022/11/02 06:21:08;;;;;;;2.70;1.73;;;19.70;54.80;;;;;;5157581;27;20081;-10
2022/11/02 06:23:34;;;;;;;2.85;1.75;;;19.70;54.70;;;;;;5158005;27;20374;-10
2022/11/02 06:26:01;;;;;;;2.72;1.70;;;19.70;54.70;;;;;;5157803;27;20494;-10
2022/11/02 06:28:28;;;;;;;3.05;1.60;;;19.70;54.60;;;;;;5157749;27;20486;-10
2022/11/02 06:30:54;;;;;;;3.28;1.67;;;19.70;55.10;;;;;;5138979;27;20484;-10
2022/11/02 06:33:20;;;;;;;3.85;1.90;;;19.80;54.50;;;;;;5138061;27;20101;-9
2022/11/02 06:35:49;;;;;;;2.30;1.67;;;19.80;54.50;;;;;;5157337;27;20062;-9
2022/11/02 06:38:15;;;;;;;4.18;1.92;;;19.80;54.50;;;;;;5157204;27;20070;-10
2022/11/02 06:40:40;;;;;;;2.95;1.85;;;19.80;54.40;;;;;;5157180;27;20080;-10
2022/11/02 06:43:06;;;;;;;4.40;2.00;;;19.80;54.30;;;;;;5156978;27;20051;-10
2022/11/02 06:45:32;;;;;;;4.20;2.05;;;19.80;54.30;;;;;;5138667;27;20051;-9
2022/11/02 06:47:57;;;;;;;3.50;1.95;;;19.80;54.20;;;;;;5157382;27;20142;-10
2022/11/02 06:50:23;;;;;;;3.67;2.03;;;19.80;54.30;;;;;;5157593;27;20509;-9
2022/11/02 06:52:49;;;;;;;4.03;1.90;;;19.80;54.30;;;;;;5157581;27;20121;-9
2022/11/02 06:55:16;;;;;;;2.33;1.90;;;19.90;54.40;;;;;;5157270;27;20432;-9
2022/11/02 06:57:42;;;;;;;3.35;1.80;;;19.80;54.20;;;;;;5157085;27;20532;-9
2022/11/02 07:00:11;;;;;;;5.78;2.00;;;19.80;54.20;;;;;;5156855;27;20051;-10
2022/11/02 07:02:40;;;;;;;3.70;1.73;;;19.90;54.30;;;;;;5157065;27;20074;-10
2022/11/02 07:05:06;;;;;;;3.45;2.00;;;19.80;54.30;;;;;;5156921;27;20521;-10
2022/11/02 07:07:32;;;;;;;4.07;2.00;;;19.80;54.30;;;;;;5157239;27;20050;-10
2022/11/02 07:09:58;;;;;;;4.68;1.70;;;19.80;54.30;;;;;;5156907;27;20042;-10
2022/11/02 07:12:24;;;;;;;3.55;1.73;;;19.80;54.40;;;;;;5156604;27;20521;-10
2022/11/02 07:14:49;;;;;;;3.50;1.88;;;19.80;54.90;;;;;;5156665;27;20051;-10
2022/11/02 07:17:15;;;;;;;3.58;1.88;;;19.80;54.40;;;;;;5138178;27;20047;-10
2022/11/02 07:19:41;;;;;;;4.13;1.80;;;19.80;54.40;;;;;;5156463;27;20118;-9
2022/11/02 07:22:07;;;;;;;2.85;1.70;;;19.80;54.40;;;;;;5156373;27;20375;-10
2022/11/02 07:24:32;;;;;;;4.45;1.90;;;19.80;54.40;;;;;;5156568;27;20141;-10
2022/11/02 07:26:58;;;;;;;2.60;1.65;;;19.80;54.40;;;;;;5156932;27;20505;-10
2022/11/02 07:29:23;;;;;;;3.83;1.58;;;19.80;54.40;;;;;;5155771;27;20516;-10
2022/11/02 07:31:49;;;;;;;2.70;1.52;;;19.80;54.40;;;;;;5156879;27;20058;-11
2022/11/02 07:34:15;;;;;;;1.73;1.42;;;19.80;54.40;;;;;;5157143;27;20062;-10
2022/11/02 07:36:40;;;;;;;2.92;1.65;;;19.80;54.40;;;;;;5156334;27;20121;-11
2022/11/02 07:39:06;;;;;;;3.72;1.80;;;19.80;54.40;;;;;;5156342;27;20055;-10
2022/11/02 07:41:33;;;;;;;3.22;1.50;;;19.80;54.40;;;;;;5156183;27;20043;-11
2022/11/02 07:43:59;;;;;;;3.85;1.60;;;19.80;54.40;;;;;;5156607;27;20141;-11
2022/11/02 07:46:31;;;;;;;2.70;1.67;;;19.80;54.40;;;;;;5156294;27;20133;-10
2022/11/02 07:48:56;;;;;;;5.60;1.63;;;19.80;54.50;;;;;;5156153;27;20141;-11
2022/11/02 07:51:22;;;;;;;2.97;1.50;;;19.80;54.40;;;;;;5156463;27;20142;-10
2022/11/02 07:53:48;;;;;;;3.70;1.65;;;19.80;54.40;;;;;;5156057;27;20054;-11
2022/11/02 07:56:13;;;;;;;3.78;2.10;;;19.80;54.40;;;;;;5156690;27;20050;-10
2022/11/02 07:58:39;;;;;;;3.80;1.95;;;19.80;54.20;;;;;;5155825;27;20050;-10
2022/11/02 08:01:05;;;;;;;3.05;1.98;;;19.90;54.20;;;;;;5155849;27;20078;-11
2022/11/02 08:03:32;;;;;;;5.20;2.08;;;19.90;54.10;;;;;;5155759;27;20487;-10
2022/11/02 08:06:02;;;;;;;3.75;1.50;;;19.90;54.00;;;;;;5155682;27;20050;-10
2022/11/02 08:08:29;;;;;;;3.60;1.47;;;20.00;54.00;;;;;;5155963;27;20051;-10
2022/11/02 08:11:01;;;;;;;3.13;1.60;;;19.90;54.00;;;;;;5155944;27;20098;-10
2022/11/02 08:13:26;;;;;;;3.50;1.50;;;19.90;54.00;;;;;;5155657;27;20077;-10
2022/11/02 08:15:53;;;;;;;3.03;1.60;;;20.00;54.00;;;;;;5156006;27;20051;-10
2022/11/02 08:18:25;;;;;;;3.03;1.60;;;20.00;53.90;;;;;;5155478;27;20058;-9
2022/11/02 08:20:51;;;;;;;2.53;1.52;;;20.00;54.00;;;;;;5155433;27;20501;-9
2022/11/02 08:23:18;;;;;;;2.63;1.63;;;20.00;54.00;;;;;;5155273;27;20107;-9
2022/11/02 08:25:45;;;;;;;2.92;1.55;;;20.00;54.00;;;;;;5155238;27;20054;-10
2022/11/02 08:28:17;;;;;;;3.92;1.83;;;20.00;54.00;;;;;;5155060;27;20057;-10
2022/11/02 08:30:42;;;;;;;4.10;1.77;;;20.00;53.90;;;;;;5155100;27;20047;-9
2022/11/02 08:33:14;;;;;;;3.38;1.50;;;20.00;53.90;;;;;;5155326;27;20111;-11
2022/11/02 08:35:41;;;;;;;2.38;1.42;;;20.00;53.90;;;;;;5155714;27;20055;-10
2022/11/02 08:38:08;;;;;;;2.58;1.35;;;20.00;53.80;;;;;;5154893;27;20394;-10
2022/11/02 08:40:35;;;;;;;2.28;1.40;;;20.00;53.70;;;;;;5154737;27;20099;-10
2022/11/02 08:43:06;;;;;;;4.00;1.92;;;20.00;53.80;;;;;;5154327;27;20155;-10
2022/11/02 08:45:34;;;;;;;1.88;1.20;;;20.00;53.80;;;;;;5155310;27;20106;-10
2022/11/02 08:47:59;;;;;;;2.95;1.92;;;20.00;53.70;;;;;;5155319;27;20054;-10
2022/11/02 08:50:26;;;;;;;5.07;1.88;;;20.00;53.70;;;;;;5154897;27;20110;-10
2022/11/02 08:52:52;;;;;;;2.78;1.55;;;20.00;53.70;;;;;;5154912;27;20061;-10
2022/11/02 08:55:18;;;;;;;4.10;1.77;;;20.00;53.70;;;;;;5155415;27;20058;-10
2022/11/02 08:57:49;;;;;;;4.70;1.45;;;20.00;53.70;;;;;;5154824;27;20050;-10
2022/11/02 09:00:16;;;;;;;4.63;1.65;;;20.00;53.70;;;;;;5155187;27;20479;-10
2022/11/02 09:02:43;;;;;;;5.60;1.45;;;20.00;53.70;;;;;;5154806;27;20046;-10
2022/11/02 09:05:09;;;;;;;6.82;1.85;;;20.00;53.70;;;;;;5136192;27;20058;-10
2022/11/02 09:07:35;;;;;;;8.48;2.15;;;20.00;53.70;;;;;;5154722;27;20053;-12
2022/11/02 09:10:02;;;;;;;7.75;2.28;;;20.00;53.60;;;;;;5154606;27;20133;-11
2022/11/02 09:12:27;;;;;;;6.50;2.25;;;20.00;53.60;;;;;;5154523;27;20051;-11
2022/11/02 09:14:53;;;;;;;9.95;3.08;;;20.00;53.70;;;;;;5155008;27;20130;-12
2022/11/02 09:17:19;;;;;;;9.38;2.33;;;20.00;53.70;;;;;;5155229;27;20076;-12
2022/11/02 09:19:45;;;;;;;7.22;2.65;;;19.90;53.70;;;;;;5154254;27;20053;-10
2022/11/02 09:22:11;;;;;;;7.57;2.00;;;20.00;53.80;;;;;;5154502;27;20047;-9
2022/11/02 09:24:37;;;;;;;7.80;2.53;;;19.90;53.80;;;;;;5154449;27;20078;-10
2022/11/02 09:27:02;;;;;;;6.43;2.40;;;19.90;53.80;;;;;;5154723;27;20133;-9
2022/11/02 09:29:28;;;;;;;8.93;2.05;;;19.90;53.80;;;;;;5154361;27;20047;-11
2022/11/02 09:31:54;;;;;;;13.32;2.72;;;19.90;53.80;;;;;;5154808;27;20038;-11
2022/11/02 09:34:20;;;;;;;7.80;2.78;;;19.90;54.30;;;;;;5154390;27;20054;-11
2022/11/02 09:36:45;;;;;;;8.63;2.22;;;20.00;54.20;;;;;;5154281;27;20055;-11
2022/11/02 09:39:11;;;;;;;7.82;2.08;;;20.00;54.00;;;;;;5154302;27;20440;-11
2022/11/02 09:41:48;;;;;;;16.55;3.13;;;20.10;53.80;;;;;;5154692;27;20540;-11
2022/11/02 09:44:26;;;;;;;6.68;2.40;;;20.20;53.70;;;;;;5154244;27;20050;-11
2022/11/02 09:46:52;;;;;;;9.70;2.50;;;20.20;53.60;;;;;;5143965;27;20081;-11
2022/11/02 09:49:21;;;;;;;7.13;2.25;;;20.20;53.70;;;;;;5133785;28;20133;-11
2022/11/02 09:51:52;;;;;;;8.38;2.03;;;20.20;53.70;;;;;;5133356;27;20047;-11
2022/11/02 09:54:34;;;;;;;8.93;2.42;;;20.20;53.90;;;;;;5133138;28;20051;-11
2022/11/02 09:57:09;;;;;;;8.90;1.95;;;20.10;54.10;;;;;;5133437;28;20059;-12
2022/11/02 09:59:35;;;;;;;5.97;2.03;;;20.10;54.20;;;;;;5133274;28;20054;-11
2022/11/02 10:02:22;;;;;;;5.30;1.83;;;20.00;54.80;;;;;;5132921;28;20506;-11
2022/11/02 10:05:06;;;;;;;10.38;2.67;;;20.00;54.40;;;;;;5112608;28;20067;-11
2022/11/02 10:07:56;;;;;;;7.15;1.67;;;20.00;54.50;;;;;;5112616;28;20084;-11
2022/11/02 10:10:46;;;;;;;6.45;2.25;;;19.90;54.40;;;;;;5112320;28;20138;-11
2022/11/02 10:13:41;;;;;;;9.20;1.73;;;19.90;54.50;;;;;;5112228;28;20047;-11
2022/11/02 10:16:16;;;;;;;7.35;2.70;;;19.90;54.50;;;;;;5112852;28;20063;-11
2022/11/02 10:18:48;;;;;;;11.32;2.88;;;19.90;54.60;;;;;;5112767;28;20143;-11
2022/11/02 10:21:22;;;;;;;;;;;19.80;54.60;;;;;;5113415;28;20051;-11
2022/11/02 10:23:51;;;;;;;7.28;1.90;;;19.80;54.60;;;;;;5112924;28;19916;-11
2022/11/02 10:26:31;;;;;;;5.90;1.90;;;19.80;54.60;;;;;;5112461;28;20105;-17
2022/11/02 10:29:01;;;;;;;7.15;1.92;;;19.80;54.70;;;;;;5112296;28;20098;-12
2022/11/02 10:31:33;;;;;;;8.70;1.90;;;19.80;54.60;;;;;;5112647;28;20476;-12
2022/11/02 10:34:34;;;;;;;5.05;2.45;;;19.90;54.60;;;;;;5112582;28;20138;-11
2022/11/02 10:37:33;;;;;;;3.05;1.52;;;19.90;54.50;;;;;;5090368;28;20039;-11
2022/11/02 10:40:23;;;;;;;8.82;2.72;;;19.90;54.50;;;;;;5112194;28;20061;-11
2022/11/02 10:42:57;;;;;;;4.75;1.70;;;19.90;54.40;;;;;;5112247;28;20047;-11
2022/11/02 10:45:46;;;;;;;7.25;1.98;;;19.90;54.40;;;;;;5113140;28;20074;-11
2022/11/02 10:48:26;;;;;;;4.60;1.98;;;19.90;54.40;;;;;;5112070;28;20063;-11
2022/11/02 10:51:09;;;;;;;3.67;2.17;;;19.90;54.40;;;;;;5112419;28;20056;-11
2022/11/02 10:53:40;;;;;;;6.53;1.85;;;19.90;54.40;;;;;;5112716;28;20047;-11
2022/11/02 10:56:17;;;;;;;7.78;2.22;;;19.90;54.30;;;;;;5112333;28;20059;-11
2022/11/02 10:58:51;;;;;;;5.03;1.77;;;20.00;54.40;;;;;;5112395;28;20052;-10
2022/11/02 11:01:17;;;;;;;4.63;1.85;;;19.90;54.30;;;;;;5112495;28;20055;-11
2022/11/02 11:04:00;;;;;;;7.60;2.08;;;20.00;54.30;;;;;;5112178;28;20059;-10
2022/11/02 11:06:27;;;;;;;4.28;1.85;;;20.00;54.30;;;;;;5115401;28;20068;-11
2022/11/02 11:08:59;;;;;;;4.22;2.17;;;19.90;54.30;;;;;;5114976;28;20048;-10
2022/11/02 11:11:36;;;;;;;4.07;2.03;;;19.90;54.30;;;;;;5114919;28;20052;-11
2022/11/02 11:14:16;;;;;;;3.97;1.67;;;19.90;54.40;;;;;;5115121;28;20183;-10
2022/11/02 11:17:01;;;;;;;5.20;2.10;;;19.90;54.40;;;;;;5114906;28;20051;-11
2022/11/02 11:19:38;;;;;;;4.35;1.70;;;19.90;54.40;;;;;;5113723;28;20075;-12
2022/11/02 11:22:40;;;;;;;6.88;2.20;;;19.90;54.40;;;;;;5113707;28;20051;-12
2022/11/02 11:25:12;;;;;;;3.45;2.00;;;19.90;54.40;;;;;;5114541;28;20090;-11
2022/11/02 11:27:46;;;;;;;5.25;1.65;;;19.90;54.40;;;;;;5114876;28;20056;-11
2022/11/02 11:30:35;;;;;;;4.45;1.70;;;19.90;54.40;;;;;;5114928;28;20058;-11
2022/11/02 11:33:04;;;;;;;9.55;2.25;;;19.90;54.40;;;;;;5114667;28;20115;-11
2022/11/02 11:35:33;;;;;;;2.72;1.67;;;19.90;54.40;;;;;;5114604;28;20088;-11
2022/11/02 11:38:02;;;;;;;5.68;2.33;;;19.90;54.40;;;;;;5114543;28;20078;-11
2022/11/02 11:40:34;;;;;;;7.40;2.15;;;19.90;54.50;;;;;;5114788;28;20052;-11
2022/11/02 11:43:03;;;;;;;6.72;2.17;;;19.90;54.50;;;;;;5096052;28;20043;-11
2022/11/02 11:45:32;;;;;;;4.68;2.03;;;19.90;54.40;;;;;;5114570;28;20055;-11
2022/11/02 11:48:34;;;;;;;4.90;2.53;;;19.90;54.40;;;;;;5114371;28;20101;-11
2022/11/02 11:51:02;;;;;;;2.88;1.55;;;19.90;54.40;;;;;;5114387;28;20074;-12
2022/11/02 11:53:30;;;;;;;6.65;1.83;;;19.90;54.30;;;;;;5114193;28;20432;-11
2022/11/02 11:55:59;;;;;;;3.17;2.13;;;19.90;54.40;;;;;;5114468;28;20047;-11
2022/11/02 11:58:35;;;;;;;5.00;1.85;;;19.90;54.40;;;;;;5114466;28;20126;-11
2022/11/02 12:01:06;;;;;;;2.38;1.48;;;19.80;54.40;;;;;;5114407;28;20497;-12
2022/11/02 12:03:52;;;;;;;;;;;19.90;54.50;;;;;;5096233;28;20131;-11
2022/11/02 12:06:39;;;;;;;3.15;1.70;;;19.80;54.50;;;;;;5114218;28;19923;-11
2022/11/02 12:09:32;;;;;;;4.10;1.95;;;19.80;54.50;;;;;;5096077;28;20134;-11
2022/11/02 12:12:19;;;;;;;3.80;1.88;;;19.80;54.60;;;;;;5113941;28;20488;-11
2022/11/02 12:15:09;;;;;;;6.32;2.03;;;19.80;54.60;;;;;;5114378;28;20060;-11
2022/11/02 12:18:00;;;;;;;4.63;2.08;;;19.80;54.60;;;;;;5113955;28;20087;-11
2022/11/02 12:20:59;;;;;;;6.13;1.77;;;19.80;54.60;;;;;;5114062;28;20100;-11
2022/11/02 12:23:47;;;;;;;4.95;2.13;;;19.70;54.50;;;;;;5113918;28;20305;-11
2022/11/02 12:26:20;;;;;;;4.80;1.95;;;19.80;54.60;;;;;;5113890;28;20047;-11
2022/11/02 12:28:49;;;;;;;4.90;1.50;;;19.80;54.60;;;;;;5113632;28;20070;-11
2022/11/02 12:31:43;;;;;;;7.22;1.60;;;19.80;54.70;;;;;;5113725;28;20055;-11
2022/11/02 12:34:46;;;;;;;3.30;1.48;;;19.80;54.50;;;;;;5113674;28;20047;-11
2022/11/02 12:37:17;;;;;;;3.55;1.70;;;19.80;54.40;;;;;;5113593;28;20123;-11
2022/11/02 12:40:05;;;;;;;2.28;1.65;;;19.80;54.30;;;;;;5113415;28;20551;-11
2022/11/02 12:42:38;;;;;;;4.38;2.17;;;19.80;54.30;;;;;;5113088;28;20381;-11
2022/11/02 12:45:18;;;;;;;2.72;1.50;;;19.80;54.30;;;;;;5113504;28;20058;-11
2022/11/02 12:48:01;;;;;;;5.07;1.70;;;19.80;54.20;;;;;;5113133;28;20052;-11
2022/11/02 12:50:35;;;;;;;3.88;1.63;;;19.80;54.70;;;;;;5113085;28;20055;-11
2022/11/02 12:53:19;;;;;;;4.47;1.38;;;19.90;54.10;;;;;;5113382;28;20417;-11
2022/11/02 12:55:49;;;;;;;2.83;1.70;;;19.90;54.10;;;;;;5112861;28;20081;-11
2022/11/02 12:58:42;;;;;;;3.43;1.70;;;19.90;54.10;;;;;;5112948;28;20063;-11
2022/11/02 13:01:18;;;;;;;3.42;1.92;;;19.90;54.00;;;;;;5108717;28;20138;-10
2022/11/02 13:04:18;;;;;;;2.50;1.40;;;19.90;54.00;;;;;;5113455;28;20050;-9
2022/11/02 13:06:47;;;;;;;4.25;1.75;;;19.90;53.90;;;;;;5112877;28;20580;-10
2022/11/02 13:09:50;;;;;;;2.88;1.40;;;19.90;54.00;;;;;;5113564;28;20056;-9
2022/11/02 13:12:20;;;;;;;2.65;1.88;;;19.90;54.00;;;;;;5113088;28;20040;-10
2022/11/02 13:14:51;;;;;;;4.53;1.75;;;19.90;54.00;;;;;;5094484;28;20429;-10
2022/11/02 13:17:36;;;;;;;;;;;19.90;54.20;;;;;;5113089;28;20055;-10
2022/11/02 13:20:29;;;;;;;2.97;1.50;;;19.90;54.10;;;;;;5112828;28;20006;-10
2022/11/02 13:23:17;;;;;;;3.80;1.75;;;19.90;54.10;;;;;;5112730;28;20492;-11
2022/11/02 13:25:50;;;;;;;3.45;1.83;;;19.80;54.20;;;;;;5093949;28;20171;-10
2022/11/02 13:28:42;;;;;;;2.40;1.38;;;19.80;54.20;;;;;;5112177;28;20083;-11